Date,TemperatureHighF,TemperatureAvgF,TemperatureLowF,DewpointHighF,DewpointAvgF,DewpointLowF,HumidityHigh,HumidityAvg,HumidityLow,PressureMaxIn,PressureMinIn,WindSpeedMaxMPH,WindSpeedAvgMPH,GustSpeedMaxMPH,PrecipitationSumIn
2013-1-1,21,12,6,-100,-100,-100,0,0,100,0.00,40.00,0,-999,0,0.00
2013-1-2,32,23,13,-100,-100,-100,0,0,100,0.00,40.00,0,-999,0,0.00
2013-1-3,31,25,11,-100,-100,-100,0,0,100,0.00,40.00,0,-999,0,0.00
2013-1-4,35,22,12,-100,-100,-100,0,0,100,0.00,40.00,0,-999,0,0.00
2013-1-5,40,31,21,-100,-100,-100,0,0,100,0.00,40.00,0,-999,0,0.00
2013-1-6,42,26,19,-100,-100,-100,0,0,100,0.00,40.00,0,-999,0,0.00
2013-1-7,50,36,26,-100,-100,-100,0,0,100,0.00,40.00,0,-999,0,0.00
2013-1-8,52,37,29,-100,-100,-100,0,0,100,0.00,40.00,0,-999,0,0.00
2013-1-9,54,34,25,-100,-100,-100,0,0,100,0.00,40.00,0,-999,0,0.00
2013-1-10,40,38,29,-100,-100,-100,0,0,100,0.00,40.00,0,-999,0,0.00
2013-1-11,56,48,39,-100,-100,-100,0,0,100,0.00,40.00,0,-999,0,0.00
2013-1-12,32,24,18,-100,-100,-100,0,0,100,0.00,40.00,0,-999,0,0.00
2013-1-13,23,15,10,-100,-100,-100,0,0,100,0.00,40.00,0,-999,0,0.00
2013-1-14,31,18,6,-100,-100,-100,0,0,100,0.00,40.00,0,-999,0,0.00
2013-1-15,36,24,13,-100,-100,-100,0,0,100,0.00,40.00,0,-999,0,0.00
2013-1-16,52,36,21,-100,-100,-100,0,0,100,0.00,40.00,0,-999,0,0.00
2013-1-17,49,34,25,-100,-100,-100,0,0,100,0.00,40.00,0,-999,0,0.00
2013-1-18,58,43,27,-100,-100,-100,0,0,100,0.00,40.00,0,-999,0,0.00
2013-1-19,57,42,36,-100,-100,-100,0,0,100,0.00,40.00,0,-999,0,0.00
2013-1-20,27,22,16,-100,-100,-100,0,0,100,0.00,40.00,0,-999,0,0.00
2013-1-21,16,14,11,-100,-100,-100,0,0,100,0.00,40.00,0,-999,0,0.00
2013-1-22,29,17,9,-100,-100,-100,0,0,100,0.00,40.00,0,-999,0,0.00
2013-1-23,39,23,12,-100,-100,-100,0,0,100,0.00,40.00,0,-999,0,0.00
2013-1-24,24,14,5,-100,-100,-100,0,0,100,0.00,40.00,0,-999,0,0.00
2013-1-25,49,33,15,-100,-100,-100,0,0,100,0.00,40.00,0,-999,0,0.00
2013-1-26,50,34,23,-100,-100,-100,0,0,100,0.00,40.00,0,-999,0,0.00
2013-1-27,52,42,37,-100,-100,-100,0,0,100,0.00,40.00,0,-999,0,0.00
2013-1-28,62,42,35,-100,-100,-100,0,0,100,0.00,40.00,0,-999,0,0.00
2013-1-29,63,41,32,-100,-100,-100,0,0,100,0.00,40.00,0,-999,0,0.00
2013-1-30,32,22,10,-100,-100,-100,0,0,100,0.00,40.00,0,-999,0,0.00
2013-1-31,11,8,3,-100,-100,-100,0,0,100,0.00,40.00,0,-999,0,0.00
2013-2-1,28,17,-3,-100,-100,-100,0,0,100,0.00,40.00,0,-999,0,0.00
2013-2-2,41,34,26,-100,-100,-100,0,0,100,0.00,40.00,0,-999,0,0.00
2013-2-3,46,38,27,-100,-100,-100,0,0,100,0.00,40.00,0,-999,0,0.00
2013-2-4,36,31,25,-100,-100,-100,0,0,100,0.00,40.00,0,-999,0,0.00
2013-2-5,51,35,26,-100,-100,-100,0,0,100,0.00,40.00,0,-999,0,0.00
2013-2-6,61,47,29,-100,-100,-100,0,0,100,0.00,40.00,0,-999,0,0.00
2013-2-7,47,38,32,-100,-100,-100,0,0,100,0.00,40.00,0,-999,0,0.00
2013-2-8,39,32,27,-100,-100,-100,0,0,100,0.00,40.00,0,-999,0,0.00
2013-2-9,50,39,29,-100,-100,-100,0,0,100,0.00,40.00,0,-999,0,0.00
2013-2-10,45,40,34,-100,-100,-100,0,0,100,0.00,40.00,0,-999,0,0.00
2013-2-11,41,34,25,-100,-100,-100,0,0,100,0.00,40.00,0,-999,0,0.00
2013-2-12,50,30,19,-100,-100,-100,0,0,100,0.00,40.00,0,-999,0,0.00
2013-2-13,53,38,25,-100,-100,-100,0,0,100,0.00,40.00,0,-999,0,0.00
2013-2-14,47,38,29,-100,-100,-100,0,0,100,0.00,40.00,0,-999,0,0.00
2013-2-15,34,25,15,-100,-100,-100,0,0,100,0.00,40.00,0,-999,0,0.00
2013-2-16,34,26,10,-100,-100,-100,0,0,100,0.00,40.00,0,-999,0,0.00
2013-2-17,52,39,25,-100,-100,-100,0,0,100,0.00,40.00,0,-999,0,0.00
2013-2-18,43,35,24,-100,-100,-100,0,0,100,0.00,40.00,0,-999,0,0.00
2013-2-19,25,19,11,-100,-100,-100,0,0,100,0.00,40.00,0,-999,0,0.00
2013-2-20,25,17,9,-100,-100,-100,0,0,100,0.00,40.00,0,-999,0,0.00
2013-2-21,25,23,21,-100,-100,-100,0,0,100,0.00,40.00,0,-999,0,0.00
2013-2-22,24,18,8,-100,-100,-100,0,0,100,0.00,40.00,0,-999,0,0.00
2013-2-23,39,23,2,-100,-100,-100,0,0,100,0.00,40.00,0,-999,0,0.00
2013-2-24,40,30,12,-100,-100,-100,0,0,100,0.00,40.00,0,-999,0,0.00
2013-2-25,36,33,31,-100,-100,-100,0,0,100,0.00,40.00,0,-999,0,0.00
2013-2-26,32,30,28,-100,-100,-100,0,0,100,0.00,40.00,0,-999,0,0.00
2013-2-27,37,30,25,-100,-100,-100,0,0,100,0.00,40.00,0,-999,0,0.00
2013-2-28,32,29,27,-100,-100,-100,0,0,100,0.00,40.00,0,-999,0,0.00
2013-3-1,29,26,25,-100,-100,-100,0,0,100,0.00,40.00,0,-999,0,0.00
2013-3-2,40,30,21,-100,-100,-100,0,0,100,0.00,40.00,0,-999,0,0.00
2013-3-3,45,35,28,-100,-100,-100,0,0,100,0.00,40.00,0,-999,0,0.00
2013-3-4,44,40,34,-100,-100,-100,0,0,100,0.00,40.00,0,-999,0,0.00
2013-3-5,33,29,24,-100,-100,-100,0,0,100,0.00,40.00,0,-999,0,0.00
2013-3-6,42,29,23,-100,-100,-100,0,0,100,0.00,40.00,0,-999,0,0.00
2013-3-7,53,34,24,-100,-100,-100,0,0,100,0.00,40.00,0,-999,0,0.00
2013-3-8,59,45,33,-100,-100,-100,0,0,100,0.00,40.00,0,-999,0,0.00
2013-3-9,55,51,47,-100,-100,-100,0,0,100,0.00,40.00,0,-999,0,0.00
2013-3-10,40,31,24,-100,-100,-100,0,0,100,0.00,40.00,0,-999,0,0.00
2013-3-11,34,25,21,-100,-100,-100,0,0,100,0.00,40.00,0,-999,0,0.00
2013-3-12,36,32,25,-100,-100,-100,0,0,100,0.00,40.00,0,-999,0,0.00
2013-3-13,45,31,20,-100,-100,-100,0,0,100,0.00,40.00,0,-999,0,0.00
2013-3-14,66,46,33,-100,-100,-100,0,0,100,0.00,40.00,0,-999,0,0.00
2013-3-15,75,50,29,-100,-100,-100,0,0,100,0.00,40.00,0,-999,0,0.00
2013-3-16,43,36,32,-100,-100,-100,0,0,100,0.00,40.00,0,-999,0,0.00
2013-3-17,45,35,27,-100,-100,-100,0,0,100,0.00,40.00,0,-999,0,0.00
2013-3-18,43,37,24,-100,-100,-100,0,0,100,0.00,40.00,0,-999,0,0.00
2013-3-19,49,33,24,-100,-100,-100,0,0,100,0.00,40.00,0,-999,0,0.00
2013-3-20,37,27,18,-100,-100,-100,0,0,100,0.00,40.00,0,-999,0,0.00
2013-3-21,36,29,19,-100,-100,-100,0,0,100,0.00,40.00,0,-999,0,0.00
2013-3-22,37,33,29,-100,-100,-100,0,0,100,0.00,40.00,0,-999,0,0.00
2013-3-23,36,33,29,-100,-100,-100,0,0,100,0.00,40.00,0,-999,0,0.00
2013-3-24,29,27,26,-100,-100,-100,0,0,100,0.00,40.00,0,-999,0,0.00
2013-3-25,30,27,23,-100,-100,-100,0,0,100,0.00,40.00,0,-999,0,0.00
2013-3-26,44,30,19,-100,-100,-100,0,0,100,0.00,40.00,0,-999,0,0.00
2013-3-27,54,39,28,-100,-100,-100,0,0,100,0.00,40.00,0,-999,0,0.00
2013-3-28,64,44,25,-100,-100,-100,0,0,100,0.00,40.00,0,-999,0,0.00
2013-3-29,69,50,29,-100,-100,-100,0,0,100,0.00,40.00,0,-999,0,0.00
2013-3-30,65,55,47,-100,-100,-100,0,0,100,0.00,40.00,0,-999,0,0.00
2013-3-31,58,51,46,-100,-100,-100,0,0,100,0.00,40.00,0,-999,0,0.00
2013-4-1,42,33,26,-100,-100,-100,0,0,100,0.00,40.00,0,-999,0,0.00
2013-4-2,55,35,19,-100,-100,-100,0,0,100,0.00,40.00,0,-999,0,0.00
2013-4-3,53,44,31,-100,-100,-100,0,0,100,0.00,40.00,0,-999,0,0.00
2013-4-4,64,42,21,-100,-100,-100,0,0,100,0.00,40.00,0,-999,0,0.00
2013-4-5,72,52,33,-100,-100,-100,0,0,100,0.00,40.00,0,-999,0,0.00
2013-4-6,69,60,51,-100,-100,-100,0,0,100,0.00,40.00,0,-999,0,0.00
2013-4-7,78,59,38,-100,-100,-100,0,0,100,0.00,40.00,0,-999,0,0.00
2013-4-8,69,58,49,-100,-100,-100,0,0,100,0.00,40.00,0,-999,0,0.00
2013-4-9,71,56,42,-100,-100,-100,0,0,100,0.00,40.00,0,-999,0,0.00
2013-4-10,40,38,36,-100,-100,-100,0,0,100,0.00,40.00,0,-999,0,0.00
2013-4-11,36,33,31,-100,-100,-100,0,0,100,0.00,40.00,0,-999,0,0.00
2013-4-12,46,36,32,-100,-100,-100,0,0,100,0.00,40.00,0,-999,0,0.00
2013-4-13,60,42,25,-100,-100,-100,0,0,100,0.00,40.00,0,-999,0,0.00
2013-4-14,71,60,49,-100,-100,-100,0,0,100,0.00,40.00,0,-999,0,0.00
2013-4-15,49,41,34,-100,-100,-100,0,0,100,0.00,40.00,0,-999,0,0.00
2013-4-16,49,42,36,-100,-100,-100,0,0,100,0.00,40.00,0,-999,0,0.00
2013-4-17,47,44,41,-100,-100,-100,0,0,100,0.00,40.00,0,-999,0,0.00
2013-4-18,40,35,33,-100,-100,-100,0,0,100,0.00,40.00,0,-999,0,0.00
2013-4-19,48,36,30,-100,-100,-100,0,0,100,0.00,40.00,0,-999,0,0.00
2013-4-20,51,38,25,-100,-100,-100,0,0,100,0.00,40.00,0,-999,0,0.00
2013-4-21,67,54,43,-100,-100,-100,0,0,100,0.00,40.00,0,-999,0,0.00
2013-4-22,63,50,36,-100,-100,-100,0,0,100,0.00,40.00,0,-999,0,0.00
2013-4-23,40,34,30,-100,-100,-100,0,0,100,0.00,40.00,0,-999,0,0.00
2013-4-24,55,41,27,-100,-100,-100,0,0,100,0.00,40.00,0,-999,0,0.00
2013-4-25,71,50,30,-100,-100,-100,0,0,100,0.00,40.00,0,-999,0,0.00
2013-4-26,62,56,51,-100,-100,-100,0,0,100,0.00,40.00,0,-999,0,0.00
2013-4-27,67,54,50,-100,-100,-100,0,0,100,0.00,40.00,0,-999,0,0.00
2013-4-28,80,60,43,-100,-100,-100,0,0,100,0.00,40.00,0,-999,0,0.00
2013-4-29,87,69,54,-100,-100,-100,0,0,100,0.00,40.00,0,-999,0,0.00
2013-4-30,89,79,68,-100,-100,-100,0,0,100,0.00,40.00,0,-999,0,0.00
2013-5-1,58,48,37,-100,-100,-100,0,0,100,0.00,40.00,0,-999,0,0.00
2013-5-2,44,39,33,-100,-100,-100,0,0,100,0.00,40.00,0,-999,0,0.00
2013-5-3,43,38,34,-100,-100,-100,0,0,100,0.00,40.00,0,-999,0,0.00
2013-5-4,44,39,36,-100,-100,-100,0,0,100,0.00,40.00,0,-999,0,0.00
2013-5-5,52,46,43,-100,-100,-100,0,0,100,0.00,40.00,0,-999,0,0.00
2013-5-6,66,55,50,-100,-100,-100,0,0,100,0.00,40.00,0,-999,0,0.00
2013-5-7,76,56,42,-100,-100,-100,0,0,100,0.00,40.00,0,-999,0,0.00
2013-5-8,76,65,58,-100,-100,-100,0,0,100,0.00,40.00,0,-999,0,0.00
2013-5-9,69,63,60,-100,-100,-100,0,0,100,0.00,40.00,0,-999,0,0.00
2013-5-10,69,59,51,-100,-100,-100,0,0,100,0.00,40.00,0,-999,0,0.00
2013-5-11,62,54,47,-100,-100,-100,0,0,100,0.00,40.00,0,-999,0,0.00
2013-5-12,69,51,34,-100,-100,-100,0,0,100,0.00,40.00,0,-999,0,0.00
2013-5-13,82,64,44,-100,-100,-100,0,0,100,0.00,40.00,0,-999,0,0.00
2013-5-14,96,79,58,-100,-100,-100,0,0,100,0.00,40.00,0,-999,0,0.00
2013-5-15,87,77,63,-100,-100,-100,0,0,100,0.00,40.00,0,-999,0,0.00
2013-5-16,84,70,62,-100,-100,-100,0,0,100,0.00,40.00,0,-999,0,0.00
2013-5-17,85,72,61,-100,-100,-100,0,0,100,0.00,40.00,0,-999,0,0.00
2013-5-18,83,72,59,-100,-100,-100,0,0,100,0.00,40.00,0,-999,0,0.00
2013-5-19,84,72,61,-100,-100,-100,0,0,100,0.00,40.00,0,-999,0,0.00
2013-5-20,78,67,60,-100,-100,-100,0,0,100,0.00,40.00,0,-999,0,0.00
2013-5-21,67,63,58,-100,-100,-100,0,0,100,0.00,40.00,0,-999,0,0.00
2013-5-22,62,57,53,-100,-100,-100,0,0,100,0.00,40.00,0,-999,0,0.00
2013-5-23,73,60,54,-100,-100,-100,0,0,100,0.00,40.00,0,-999,0,0.00
2013-5-24,76,63,47,-100,-100,-100,0,0,100,0.00,40.00,0,-999,0,0.00
2013-5-25,84,74,64,-100,-100,-100,0,0,100,0.00,40.00,0,-999,0,0.00
2013-5-26,86,78,70,-100,-100,-100,0,0,100,0.00,40.00,0,-999,0,0.00
2013-5-27,78,75,71,-100,-100,-100,0,0,100,0.00,40.00,0,-999,0,0.00
2013-5-28,80,73,66,-100,-100,-100,0,0,100,0.00,40.00,0,-999,0,0.00
2013-5-29,76,70,63,-100,-100,-100,0,0,100,0.00,40.00,0,-999,0,0.00
2013-5-30,78,69,61,-100,-100,-100,0,0,100,0.00,40.00,0,-999,0,0.00
2013-5-31,82,70,58,-100,-100,-100,0,0,100,0.00,40.00,0,-999,0,0.00
2013-6-1,66,61,57,-100,-100,-100,0,0,100,0.00,40.00,0,-999,0,0.00
2013-6-2,73,59,53,-100,-100,-100,0,0,100,0.00,40.00,0,-999,0,0.00
2013-6-3,77,58,47,-100,-100,-100,0,0,100,0.00,40.00,0,-999,0,0.00
2013-6-4,78,70,63,-100,-100,-100,0,0,100,0.00,40.00,0,-999,0,0.00
2013-6-5,72,66,58,-100,-100,-100,0,0,100,0.00,40.00,0,-999,0,0.00
2013-6-6,74,65,54,-100,-100,-100,0,0,100,0.00,40.00,0,-999,0,0.00
2013-6-7,79,64,51,-100,-100,-100,0,0,100,0.00,40.00,0,-999,0,0.00
2013-6-8,80,66,56,-100,-100,-100,0,0,100,0.00,40.00,0,-999,0,0.00
2013-6-9,73,66,62,-100,-100,-100,0,0,100,0.00,40.00,0,-999,0,0.00
2013-6-10,87,71,58,-100,-100,-100,0,0,100,0.00,40.00,0,-999,0,0.00
2013-6-11,83,77,69,-100,-100,-100,0,0,100,0.00,40.00,0,-999,0,0.00
2013-6-12,91,80,69,-100,-100,-100,0,0,100,0.00,40.00,0,-999,0,0.00
2013-6-13,87,71,60,-100,-100,-100,0,0,100,0.00,40.00,0,-999,0,0.00
2013-6-14,92,78,65,-100,-100,-100,0,0,100,0.00,40.00,0,-999,0,0.00
2013-6-15,83,75,69,-100,-100,-100,0,0,100,0.00,40.00,0,-999,0,0.00
2013-6-16,87,74,67,-100,-100,-100,0,0,100,0.00,40.00,0,-999,0,0.00
2013-6-17,91,79,68,-100,-100,-100,0,0,100,0.00,40.00,0,-999,0,0.00
2013-6-18,87,73,64,-100,-100,-100,0,0,100,0.00,40.00,0,-999,0,0.00
2013-6-19,90,80,66,-100,-100,-100,0,0,100,0.00,40.00,0,-999,0,0.00
2013-6-20,92,74,69,-100,-100,-100,0,0,100,0.00,40.00,0,-999,0,0.00
2013-6-22,92,88,83,-100,-100,-100,0,0,100,0.00,40.00,0,-999,0,0.00
2013-6-23,85,74,64,-100,-100,-100,0,0,100,0.00,40.00,0,-999,0,0.00
2013-6-24,87,78,74,-100,-100,-100,0,0,100,0.00,40.00,0,-999,0,0.00
2013-6-25,91,81,74,-100,-100,-100,0,0,100,0.00,40.00,0,-999,0,0.00
2013-6-26,97,84,75,-100,-100,-100,0,0,100,0.00,40.00,0,-999,0,0.00
2013-6-27,73,72,67,-100,-100,-100,0,0,100,0.00,40.00,0,-999,0,0.00
2013-6-28,82,77,69,-100,-100,-100,0,0,100,0.00,40.00,0,-999,0,0.00
2013-6-29,79,72,65,-100,-100,-100,0,0,100,0.00,40.00,0,-999,0,0.00
2013-6-30,79,70,60,-100,-100,-100,0,0,100,0.00,40.00,0,-999,0,0.00
2013-7-1,84,67,54,-100,-100,-100,0,0,100,0.00,40.00,0,-999,0,0.00
2013-7-2,86,72,55,-100,-100,-100,0,0,100,0.00,40.00,0,-999,0,0.00
2013-7-3,88,81,58,-100,-100,-100,0,0,100,0.00,40.00,0,-999,0,0.00
2013-7-4,91,80,66,-100,-100,-100,0,0,100,0.00,40.00,0,-999,0,0.00
2013-7-5,94,78,64,-100,-100,-100,0,0,100,0.00,40.00,0,-999,0,0.00
2013-7-6,87,74,67,-100,-100,-100,0,0,100,0.00,40.00,0,-999,0,0.00
2013-7-7,96,82,71,-100,-100,-100,0,0,100,0.00,40.00,0,-999,0,0.00
2013-7-8,95,84,80,-100,-100,-100,0,0,100,0.00,40.00,0,-999,0,0.00
2013-7-9,103,89,74,-100,-100,-100,0,0,100,0.00,40.00,0,-999,0,0.00
2013-7-10,88,81,71,-100,-100,-100,0,0,100,0.00,40.00,0,-999,0,0.00
2013-7-11,92,78,65,-100,-100,-100,0,0,100,0.00,40.00,0,-999,0,0.00
2013-7-12,93,79,67,-100,-100,-100,0,0,100,0.00,40.00,0,-999,0,0.00
2013-7-13,88,78,69,-100,-100,-100,0,0,100,0.00,40.00,0,-999,0,0.00
2013-7-14,91,80,70,-100,-100,-100,0,0,100,0.00,40.00,0,-999,0,0.00
2013-7-15,94,76,64,-100,-100,-100,0,0,100,0.00,40.00,0,-999,0,0.00
2013-7-16,94,82,69,-100,-100,-100,0,0,100,0.00,40.00,0,-999,0,0.00
2013-7-17,97,87,73,-100,-100,-100,0,0,100,0.00,40.00,0,-999,0,0.00
2013-7-18,96,88,77,-100,-100,-100,0,0,100,0.00,40.00,0,-999,0,0.00
2013-7-19,93,82,72,-100,-100,-100,0,0,100,0.00,40.00,0,-999,0,0.00
2013-7-20,86,77,72,-100,-100,-100,0,0,100,0.00,40.00,0,-999,0,0.00
2013-7-21,94,82,69,-100,-100,-100,0,0,100,0.00,40.00,0,-999,0,0.00
2013-7-22,99,85,69,-100,-100,-100,0,0,100,0.00,40.00,0,-999,0,0.00
2013-7-23,82,75,70,-100,-100,-100,0,0,100,0.00,40.00,0,-999,0,0.00
2013-7-24,86,71,58,-100,-100,-100,0,0,100,0.00,40.00,0,-999,0,0.00
2013-7-25,81,72,65,-100,-100,-100,0,0,100,0.00,40.00,0,-999,0,0.00
2013-7-26,80,72,62,-100,-100,-100,0,0,100,0.00,40.00,0,-999,0,0.00
2013-7-27,76,67,52,-100,-100,-100,0,0,100,0.00,40.00,0,-999,0,0.00
2013-7-28,76,56,48,-100,-100,-100,0,0,100,0.00,40.00,0,-999,0,0.00
2013-7-29,68,65,62,-100,-100,-100,0,0,100,0.00,40.00,0,-999,0,0.00
2013-7-30,76,71,67,-100,-100,-100,0,0,100,0.00,40.00,0,-999,0,0.00
2013-7-31,83,70,63,-100,-100,-100,0,0,100,0.00,40.00,0,-999,0,0.00
2013-8-1,91,75,65,-100,-100,-100,0,0,100,0.00,40.00,0,-999,0,0.00
2013-8-2,85,75,67,-100,-100,-100,0,0,100,0.00,40.00,0,-999,0,0.00
2013-8-3,80,71,66,-100,-100,-100,0,0,100,0.00,40.00,0,-999,0,0.00
2013-8-4,76,76,74,-100,-100,-100,0,0,100,0.00,40.00,0,-999,0,0.00
2013-8-5,87,76,69,-100,-100,-100,0,0,100,0.00,40.00,0,-999,0,0.00
2013-8-6,92,75,69,-100,-100,-100,0,0,100,0.00,40.00,0,-999,0,0.00
2013-8-7,86,77,70,-100,-100,-100,0,0,100,0.00,40.00,0,-999,0,0.00
2013-8-8,78,71,64,-100,-100,-100,0,0,100,0.00,40.00,0,-999,0,0.00
2013-8-9,85,75,68,-100,-100,-100,0,0,100,0.00,40.00,0,-999,0,0.00
2013-8-10,73,66,63,-100,-100,-100,0,0,100,0.00,40.00,0,-999,0,0.00
2013-8-11,91,82,59,-100,-100,-100,0,0,100,0.00,40.00,0,-999,0,0.00
2013-8-12,84,77,68,-100,-100,-100,0,0,100,0.00,40.00,0,-999,0,0.00
2013-8-13,82,73,65,-100,-100,-100,0,0,100,0.00,40.00,0,-999,0,0.00
2013-8-14,81,70,54,-100,-100,-100,0,0,100,0.00,40.00,0,-999,0,0.00
2013-8-15,72,66,60,-100,-100,-100,0,0,100,0.00,40.00,0,-999,0,0.00
2013-8-16,76,68,64,-100,-100,-100,0,0,100,0.00,40.00,0,-999,0,0.00
2013-8-17,83,70,58,-100,-100,-100,0,0,100,0.00,40.00,0,-999,0,0.00
2013-8-18,83,66,52,-100,-100,-100,0,0,100,0.00,40.00,0,-999,0,0.00
2013-8-19,87,73,62,-100,-100,-100,0,0,100,0.00,40.00,0,-999,0,0.00
2013-8-20,91,84,66,-100,-100,-100,0,0,100,0.00,40.00,0,-999,0,0.00
2013-8-21,93,75,65,-100,-100,-100,0,0,100,0.00,40.00,0,-999,0,0.00
2013-8-22,83,75,72,-100,-100,-100,0,0,100,0.00,40.00,0,-999,0,0.00
2013-8-23,93,83,69,-100,-100,-100,0,0,100,0.00,40.00,0,-999,0,0.00
2013-8-24,92,81,72,-100,-100,-100,0,0,100,0.00,40.00,0,-999,0,0.00
2013-8-25,96,88,73,-100,-100,-100,0,0,100,0.00,40.00,0,-999,0,0.00
2013-8-26,96,85,71,-100,-100,-100,0,0,100,0.00,40.00,0,-999,0,0.00
2013-8-27,92,80,73,-100,-100,-100,0,0,100,0.00,40.00,0,-999,0,0.00
2013-8-28,94,91,79,-100,-100,-100,0,0,100,0.00,40.00,0,-999,0,0.00
2013-8-29,97,83,72,-100,-100,-100,0,0,100,0.00,40.00,0,-999,0,0.00
2013-8-30,102,90,75,-100,-100,-100,0,0,100,0.00,40.00,0,-999,0,0.00
2013-8-31,84,78,73,-100,-100,-100,0,0,100,0.00,40.00,0,-999,0,0.00
2013-9-1,83,76,65,-100,-100,-100,0,0,100,0.00,40.00,0,-999,0,0.00
2013-9-2,80,71,60,-100,-100,-100,0,0,100,0.00,40.00,0,-999,0,0.00
2013-9-3,84,71,54,-100,-100,-100,0,0,100,0.00,40.00,0,-999,0,0.00
2013-9-4,86,80,65,-100,-100,-100,0,0,100,0.00,40.00,0,-999,0,0.00
2013-9-5,69,69,68,-100,-100,-100,0,0,100,0.00,40.00,0,-999,0,0.00
2013-9-6,91,76,68,-100,-100,-100,0,0,100,0.00,40.00,0,-999,0,0.00
2013-9-7,96,83,69,-100,-100,-100,0,0,100,0.00,40.00,0,-999,0,0.00
2013-9-8,73,72,71,-100,-100,-100,0,0,100,0.00,40.00,0,-999,0,0.00
2013-9-9,96,85,69,-100,-100,-100,0,0,100,0.00,40.00,0,-999,0,0.00
2013-9-10,94,86,65,-100,-100,-100,0,0,100,0.00,40.00,0,-999,0,0.00
2013-9-11,86,75,70,-100,-100,-100,0,0,100,0.00,40.00,0,-999,0,0.00
2013-9-12,81,73,61,-100,-100,-100,0,0,100,0.00,40.00,0,-999,0,0.00
2013-9-13,77,66,51,-100,-100,-100,0,0,100,0.00,40.00,0,-999,0,0.00
2013-9-14,79,64,47,-100,-100,-100,0,0,100,0.00,40.00,0,-999,0,0.00
2013-9-15,69,66,62,-100,-100,-100,0,0,100,0.00,40.00,0,-999,0,0.00
2013-9-16,62,60,55,-100,-100,-100,0,0,100,0.00,40.00,0,-999,0,0.00
2013-9-17,80,68,60,-100,-100,-100,0,0,100,0.00,40.00,0,-999,0,0.00
2013-9-18,77,70,68,-100,-100,-100,0,0,100,0.00,40.00,0,-999,0,0.00
2013-9-19,83,73,62,-100,-100,-100,0,0,100,0.00,40.00,0,-999,0,0.00
2013-9-20,71,62,50,-100,-100,-100,0,0,100,0.00,40.00,0,-999,0,0.00
2013-9-21,80,64,45,-100,-100,-100,0,0,100,0.00,40.00,0,-999,0,0.00
2013-9-22,80,70,53,-100,-100,-100,0,0,100,0.00,40.00,0,-999,0,0.00
2013-9-23,77,65,51,-100,-100,-100,0,0,100,0.00,40.00,0,-999,0,0.00
2013-9-24,73,67,55,-100,-100,-100,0,0,100,0.00,40.00,0,-999,0,0.00
2013-9-25,82,64,51,-100,-100,-100,0,0,100,0.00,40.00,0,-999,0,0.00
2013-9-26,87,70,61,-100,-100,-100,0,0,100,0.00,40.00,0,-999,0,0.00
2013-9-27,88,74,67,-100,-100,-100,0,0,100,0.00,40.00,0,-999,0,0.00
2013-9-28,72,65,54,-100,-100,-100,0,0,100,0.00,40.00,0,-999,0,0.00
2013-9-29,76,57,41,-100,-100,-100,0,0,100,0.00,40.00,0,-999,0,0.00
2013-9-30,81,64,47,-100,-100,-100,0,0,100,0.00,40.00,0,-999,0,0.00
2013-10-2,85,74,55,-100,-100,-100,0,0,100,0.00,40.00,0,-999,0,0.00
2013-10-3,82,72,62,-100,-100,-100,0,0,100,0.00,40.00,0,-999,0,0.00
2013-10-4,83,75,65,-100,-100,-100,0,0,100,0.00,40.00,0,-999,0,0.00
2013-10-5,57,50,44,-100,-100,-100,0,0,100,0.00,40.00,0,-999,0,0.00
2013-10-6,54,48,45,-100,-100,-100,0,0,100,0.00,40.00,0,-999,0,0.00
2013-10-7,74,58,37,-100,-100,-100,0,0,100,0.00,40.00,0,-999,0,0.00
2013-10-8,76,61,44,-100,-100,-100,0,0,100,0.00,40.00,0,-999,0,0.00
2013-10-9,78,63,49,-100,-100,-100,0,0,100,0.00,40.00,0,-999,0,0.00
2013-10-10,81,75,57,-100,-100,-100,0,0,100,0.00,40.00,0,-999,0,0.00
2013-10-11,80,69,58,-100,-100,-100,0,0,100,0.00,40.00,0,-999,0,0.00
2013-10-12,69,58,42,-100,-100,-100,0,0,100,0.00,40.00,0,-999,0,0.00
2013-10-13,72,57,37,-100,-100,-100,0,0,100,0.00,40.00,0,-999,0,0.00
2013-10-14,63,57,51,-100,-100,-100,0,0,100,0.00,40.00,0,-999,0,0.00
2013-10-15,56,51,44,-100,-100,-100,0,0,100,0.00,40.00,0,-999,0,0.00
2013-10-16,58,49,42,-100,-100,-100,0,0,100,0.00,40.00,0,-999,0,0.00
2013-10-17,64,48,34,-100,-100,-100,0,0,100,0.00,40.00,0,-999,0,0.00
2013-10-18,49,42,37,-100,-100,-100,0,0,100,0.00,40.00,0,-999,0,0.00
2013-10-19,65,46,33,-100,-100,-100,0,0,100,0.00,40.00,0,-999,0,0.00
2013-10-20,65,54,42,-100,-100,-100,0,0,100,0.00,40.00,0,-999,0,0.00
2013-10-21,54,43,32,-100,-100,-100,0,0,100,0.00,40.00,0,-999,0,0.00
2013-10-22,54,48,40,-100,-100,-100,0,0,100,0.00,40.00,0,-999,0,0.00
2013-10-23,56,40,28,-100,-100,-100,0,0,100,0.00,40.00,0,-999,0,0.00
2013-10-24,51,42,33,-100,-100,-100,0,0,100,0.00,40.00,0,-999,0,0.00
2013-10-25,58,39,24,-100,-100,-100,0,0,100,0.00,40.00,0,-999,0,0.00
2013-10-26,54,48,40,-100,-100,-100,0,0,100,0.00,40.00,0,-999,0,0.00
2013-10-27,69,40,24,-100,-100,-100,0,0,100,0.00,40.00,0,-999,0,0.00
2013-10-28,63,46,32,-100,-100,-100,0,0,100,0.00,40.00,0,-999,0,0.00
2013-10-29,60,54,47,-100,-100,-100,0,0,100,0.00,40.00,0,-999,0,0.00
2013-10-30,60,57,53,-100,-100,-100,0,0,100,0.00,40.00,0,-999,0,0.00
2013-10-31,57,48,44,-100,-100,-100,0,0,100,0.00,40.00,0,-999,0,0.00
2013-11-1,60,49,42,-100,-100,-100,0,0,100,0.00,40.00,0,-999,0,0.00
2013-11-2,58,45,37,-100,-100,-100,0,0,100,0.00,40.00,0,-999,0,0.00
2013-11-3,58,47,36,-100,-100,-100,0,0,100,0.00,40.00,0,-999,0,0.00
2013-11-4,61,54,47,-100,-100,-100,0,0,100,0.00,40.00,0,-999,0,0.00
2013-11-5,58,51,39,-100,-100,-100,0,0,100,0.00,40.00,0,-999,0,0.00
2013-11-6,44,37,30,-100,-100,-100,0,0,100,0.00,40.00,0,-999,0,0.00
2013-11-7,51,36,28,-100,-100,-100,0,0,100,0.00,40.00,0,-999,0,0.00
2013-11-8,69,52,31,-100,-100,-100,0,0,100,0.00,40.00,0,-999,0,0.00
2013-11-9,63,60,55,-100,-100,-100,0,0,100,0.00,40.00,0,-999,0,0.00
2013-11-10,54,42,27,-100,-100,-100,0,0,100,0.00,40.00,0,-999,0,0.00
2013-11-11,47,40,22,-100,-100,-100,0,0,100,0.00,40.00,0,-999,0,0.00
2013-11-12,36,22,14,-100,-100,-100,0,0,100,0.00,40.00,0,-999,0,0.00
2013-11-13,52,34,18,-100,-100,-100,0,0,100,0.00,40.00,0,-999,0,0.00
2013-11-14,58,42,32,-100,-100,-100,0,0,100,0.00,40.00,0,-999,0,0.00
2013-11-15,57,43,25,-100,-100,-100,0,0,100,0.00,40.00,0,-999,0,0.00
2013-11-16,71,58,48,-100,-100,-100,0,0,100,0.00,40.00,0,-999,0,0.00
2013-11-17,59,50,41,-100,-100,-100,0,0,100,0.00,40.00,0,-999,0,0.00
2013-11-18,57,39,25,-100,-100,-100,0,0,100,0.00,40.00,0,-999,0,0.00
2013-11-19,62,45,29,-100,-100,-100,0,0,100,0.00,40.00,0,-999,0,0.00
2013-11-20,56,48,40,-100,-100,-100,0,0,100,0.00,40.00,0,-999,0,0.00
2013-11-21,40,32,24,-100,-100,-100,0,0,100,0.00,40.00,0,-999,0,0.00
2013-11-22,26,22,17,-100,-100,-100,0,0,100,0.00,40.00,0,-999,0,0.00
2013-11-23,24,21,14,-100,-100,-100,0,0,100,0.00,40.00,0,-999,0,0.00
2013-11-24,30,22,11,-100,-100,-100,0,0,100,0.00,40.00,0,-999,0,0.00
2013-11-25,40,34,28,-100,-100,-100,0,0,100,0.00,40.00,0,-999,0,0.00
2013-11-26,35,28,19,-100,-100,-100,0,0,100,0.00,40.00,0,-999,0,0.00
2013-11-27,34,24,15,-100,-100,-100,0,0,100,0.00,40.00,0,-999,0,0.00
2013-11-28,36,30,21,-100,-100,-100,0,0,100,0.00,40.00,0,-999,0,0.00
2013-11-29,35,19,14,-100,-100,-100,0,0,100,0.00,40.00,0,-999,0,0.00
2013-11-30,56,41,31,-100,-100,-100,0,0,100,0.00,40.00,0,-999,0,0.00
2013-12-1,51,34,24,-100,-100,-100,0,0,100,0.00,40.00,0,-999,0,0.00
2013-12-2,63,45,28,-100,-100,-100,0,0,100,0.00,40.00,0,-999,0,0.00
2013-12-3,51,41,35,-100,-100,-100,0,0,100,0.00,40.00,0,-999,0,0.00
2013-12-4,39,27,17,-100,-100,-100,0,0,100,0.00,40.00,0,-999,0,0.00
2013-12-5,16,14,10,-100,-100,-100,0,0,100,0.00,40.00,0,-999,0,0.00
2013-12-6,12,10,6,-100,-100,-100,0,0,100,0.00,40.00,0,-999,0,0.00
2013-12-7,18,8,-2,-100,-100,-100,0,0,100,0.00,40.00,0,-999,0,0.00
2013-12-8,21,18,7,-100,-100,-100,0,0,100,0.00,40.00,0,-999,0,0.00
2013-12-9,11,6,2,-100,-100,-100,0,0,100,0.00,40.00,0,-999,0,0.00
2013-12-10,29,22,13,-100,-100,-100,0,0,100,0.00,40.00,0,-999,0,0.00
2013-12-11,25,12,7,-100,-100,-100,0,0,100,0.00,40.00,0,-999,0,0.00
2013-12-12,35,16,2,-100,-100,-100,0,0,100,0.00,40.00,0,-999,0,0.00
2013-12-13,36,26,15,-100,-100,-100,0,0,100,0.00,40.00,0,-999,0,0.00
2013-12-14,25,20,18,-100,-100,-100,0,0,100,0.00,40.00,0,-999,0,0.00
2013-12-15,38,27,15,-100,-100,-100,0,0,100,0.00,40.00,0,-999,0,0.00
2013-12-16,40,22,15,-100,-100,-100,0,0,100,0.00,40.00,0,-999,0,0.00
2013-12-17,40,31,20,-100,-100,-100,0,0,100,0.00,40.00,0,-999,0,0.00
2013-12-18,59,41,21,-100,-100,-100,0,0,100,0.00,40.00,0,-999,0,0.00
2013-12-19,42,35,28,-100,-100,-100,0,0,100,0.00,40.00,0,-999,0,0.00
2013-12-20,21,17,14,-100,-100,-100,0,0,100,0.00,40.00,0,-999,0,0.00
2013-12-21,25,21,18,-100,-100,-100,0,0,100,0.00,40.00,0,-999,0,0.00
2013-12-22,21,19,18,-100,-100,-100,0,0,100,0.00,40.00,0,-999,0,0.00
2013-12-23,10,4,-6,-100,-100,-100,0,0,100,0.00,40.00,0,-999,0,0.00
2013-12-24,26,15,-1,-100,-100,-100,0,0,100,0.00,40.00,0,-999,0,0.00
2013-12-25,39,28,20,-100,-100,-100,0,0,100,0.00,40.00,0,-999,0,0.00
2013-12-26,40,28,13,-100,-100,-100,0,0,100,0.00,40.00,0,-999,0,0.00
2013-12-27,46,36,12,-100,-100,-100,0,0,100,0.00,40.00,0,-999,0,0.00
2013-12-28,48,39,33,-100,-100,-100,0,0,100,0.00,40.00,0,-999,0,0.00
2013-12-29,22,11,7,-100,-100,-100,0,0,100,0.00,40.00,0,-999,0,0.00
2013-12-30,32,19,3,-100,-100,-100,0,0,100,0.00,40.00,0,-999,0,0.00
2013-12-31,45,19,8,-100,-100,-100,0,0,100,0.00,40.00,0,-999,0,0.00
2014-1-1,16,11,7,-100,-100,-100,0,0,100,0.00,40.00,0,-999,0,0.00
2014-1-2,10,5,-6,-100,-100,-100,0,0,100,0.00,40.00,0,-999,0,0.00